Time;durP1;ratioP1;P1;durP2;ratioP2;P2;SDS_P1;SDS_P2;PMS_P1;PMS_P2;Temp;Humidity;BMP_temperature;BMP_pressure;BME280_temperature;BME280_humidity;BME280_pressure;Samples;Min_cycle;Max_cycle;Signal;HPM_P1;HPM_P2
2021/01/08 00:00:23;;;;;;;34.75;19.98;;;;;;;;;;6197112;23;20037;-84
2021/01/08 00:02:49;;;;;;;41.03;21.73;;;;;;;;;;6194980;23;20472;-87
2021/01/08 00:05:16;;;;;;;33.58;19.45;;;;;;;;;;6195893;23;20017;-86
2021/01/08 00:07:42;;;;;;;39.08;22.75;;;;;;;;;;6195673;23;20021;-85
2021/01/08 00:10:09;;;;;;;34.88;19.65;;;;;;;;;;6196968;23;20013;-84
2021/01/08 00:12:36;;;;;;;42.80;21.05;;;;;;;;;;6169740;23;20017;-85
2021/01/08 00:15:05;;;;;;;35.53;20.60;;;;;;;;;;6195366;23;20021;-86
2021/01/08 00:17:31;;;;;;;35.92;20.33;;;;;;;;;;6194437;23;20025;-84
2021/01/08 00:19:58;;;;;;;32.65;20.20;;;;;;;;;;6171772;23;20013;-84
2021/01/08 00:22:24;;;;;;;37.88;20.55;;;;;;;;;;6199235;23;20013;-83
2021/01/08 00:24:50;;;;;;;37.22;20.50;;;;;;;;;;6195864;23;20013;-84
2021/01/08 00:27:17;;;;;;;41.97;20.95;;;;;;;;;;6194501;23;20044;-84
2021/01/08 00:29:43;;;;;;;39.83;21.70;;;;;;;;;;6197994;23;20501;-84
2021/01/08 00:32:09;;;;;;;36.33;19.70;;;;;;;;;;6169615;23;20017;-83
2021/01/08 00:34:36;;;;;;;38.97;20.65;;;;;;;;;;6198346;23;20017;-83
2021/01/08 00:37:03;;;;;;;34.25;18.58;;;;;;;;;;6198069;23;20024;-83
2021/01/08 00:39:29;;;;;;;33.63;18.60;;;;;;;;;;6197777;23;20028;-83
2021/01/08 00:41:55;;;;;;;35.60;20.08;;;;;;;;;;6169660;23;20438;-83
2021/01/08 00:44:21;;;;;;;39.45;20.13;;;;;;;;;;6170772;23;20009;-83
2021/01/08 00:46:48;;;;;;;33.78;20.17;;;;;;;;;;6195259;23;20033;-83
2021/01/08 00:49:16;;;;;;;37.15;21.40;;;;;;;;;;6196097;23;20024;-85
2021/01/08 00:51:42;;;;;;;37.13;20.70;;;;;;;;;;6198252;23;20081;-84
2021/01/08 00:54:10;;;;;;;37.28;20.88;;;;;;;;;;6201126;23;20017;-84
2021/01/08 00:56:36;;;;;;;35.20;19.67;;;;;;;;;;6202391;23;20017;-84
2021/01/08 00:59:02;;;;;;;37.67;20.70;;;;;;;;;;6202830;23;20021;-84
2021/01/08 01:01:28;;;;;;;39.13;21.05;;;;;;;;;;6203769;23;20044;-84
2021/01/08 01:03:54;;;;;;;37.85;21.15;;;;;;;;;;6203532;23;20041;-84
2021/01/08 01:06:22;;;;;;;41.15;22.30;;;;;;;;;;6203870;23;20013;-84
2021/01/08 01:08:48;;;;;;;40.75;22.02;;;;;;;;;;6203501;23;20016;-84
2021/01/08 01:11:15;;;;;;;34.97;19.42;;;;;;;;;;6203355;23;20019;-84
2021/01/08 01:13:41;;;;;;;36.75;21.27;;;;;;;;;;6203368;23;20052;-85
2021/01/08 01:16:07;;;;;;;40.53;21.85;;;;;;;;;;6177008;23;20021;-85
2021/01/08 01:18:33;;;;;;;38.28;19.38;;;;;;;;;;6199608;23;20090;-85
2021/01/08 01:20:59;;;;;;;36.15;21.00;;;;;;;;;;6149382;23;20356;-85
2021/01/08 01:23:26;;;;;;;36.80;20.30;;;;;;;;;;6173026;23;20036;-85
2021/01/08 01:25:52;;;;;;;40.20;22.95;;;;;;;;;;6173097;23;20452;-85
2021/01/08 01:28:19;;;;;;;38.28;20.65;;;;;;;;;;6174370;23;20087;-85
2021/01/08 01:30:45;;;;;;;34.90;20.88;;;;;;;;;;6199478;23;20478;-85
2021/01/08 01:33:11;;;;;;;34.05;19.88;;;;;;;;;;6199698;23;20373;-85
2021/01/08 01:35:37;;;;;;;35.00;20.05;;;;;;;;;;6174151;23;20013;-85
2021/01/08 01:38:03;;;;;;;39.17;21.23;;;;;;;;;;6200124;23;20044;-85
2021/01/08 01:40:30;;;;;;;39.63;21.42;;;;;;;;;;6174210;23;20095;-85
2021/01/08 01:42:56;;;;;;;35.30;20.83;;;;;;;;;;6148273;23;20024;-85
2021/01/08 01:45:23;;;;;;;37.28;21.30;;;;;;;;;;6198137;23;20020;-85
2021/01/08 01:47:49;;;;;;;36.88;19.88;;;;;;;;;;6201328;23;20013;-85
2021/01/08 01:50:16;;;;;;;36.83;20.95;;;;;;;;;;6200985;23;20021;-84
2021/01/08 01:52:42;;;;;;;34.80;20.00;;;;;;;;;;6200425;23;20024;-85
2021/01/08 01:55:08;;;;;;;33.58;18.65;;;;;;;;;;6200007;23;20020;-85
2021/01/08 01:57:35;;;;;;;34.85;20.35;;;;;;;;;;6173434;23;20017;-84
2021/01/08 02:00:01;;;;;;;36.15;20.85;;;;;;;;;;6172852;23;20054;-85
2021/01/08 02:02:34;;;;;;;36.50;20.75;;;;;;;;;;6162461;23;20021;-87
2021/01/08 02:05:02;;;;;;;38.15;19.17;;;;;;;;;;6107676;23;20018;-87
2021/01/08 02:07:29;;;;;;;38.63;19.30;;;;;;;;;;6106378;23;20017;-87
2021/01/08 02:09:56;;;;;;;34.47;18.95;;;;;;;;;;6131396;23;20013;-87
2021/01/08 02:12:24;;;;;;;38.35;20.85;;;;;;;;;;6116657;23;20106;-87
2021/01/08 02:14:51;;;;;;;35.20;20.13;;;;;;;;;;6157913;23;20074;-87
2021/01/08 02:17:17;;;;;;;39.47;21.52;;;;;;;;;;6158345;23;20006;-86
2021/01/08 02:19:46;;;;;;;38.95;19.80;;;;;;;;;;6158123;23;20009;-86
2021/01/08 02:22:18;;;;;;;38.20;21.40;;;;;;;;;;6158331;23;20060;-86
2021/01/08 02:24:46;;;;;;;36.38;20.95;;;;;;;;;;6159329;23;20018;-86
2021/01/08 02:27:13;;;;;;;36.88;21.35;;;;;;;;;;6183823;23;20081;-87
2021/01/08 02:29:40;;;;;;;36.70;20.95;;;;;;;;;;6133460;23;20029;-87
2021/01/08 02:32:07;;;;;;;40.70;20.95;;;;;;;;;;6141274;23;20019;-86
2021/01/08 02:34:33;;;;;;;37.00;20.50;;;;;;;;;;6162549;23;20021;-86
2021/01/08 02:37:00;;;;;;;39.17;21.52;;;;;;;;;;6112189;23;20037;-86
2021/01/08 02:39:26;;;;;;;37.35;21.13;;;;;;;;;;6160962;23;20065;-86
2021/01/08 02:41:54;;;;;;;38.33;21.60;;;;;;;;;;6135601;23;20300;-86
2021/01/08 02:44:22;;;;;;;42.85;21.27;;;;;;;;;;6136442;23;20489;-86
2021/01/08 02:46:48;;;;;;;36.78;21.15;;;;;;;;;;6161600;23;20013;-86
2021/01/08 02:49:14;;;;;;;40.67;22.85;;;;;;;;;;6162815;23;20068;-86
2021/01/08 02:51:40;;;;;;;37.38;20.73;;;;;;;;;;6152387;23;20044;-86
2021/01/08 02:54:08;;;;;;;36.38;20.40;;;;;;;;;;6178100;23;20019;-86
2021/01/08 02:56:37;;;;;;;41.67;22.38;;;;;;;;;;6160099;23;20020;-86
2021/01/08 02:59:04;;;;;;;35.83;20.90;;;;;;;;;;6160044;23;20013;-86
2021/01/08 03:01:32;;;;;;;40.28;21.95;;;;;;;;;;6142676;23;20021;-86
2021/01/08 03:04:00;;;;;;;34.22;20.60;;;;;;;;;;6138088;23;20020;-87
2021/01/08 03:06:28;;;;;;;40.30;22.55;;;;;;;;;;6162916;23;20013;-87
2021/01/08 03:08:55;;;;;;;37.55;21.23;;;;;;;;;;6162035;23;20423;-87
2021/01/08 03:11:21;;;;;;;35.15;20.75;;;;;;;;;;6188340;23;20019;-87
2021/01/08 03:13:48;;;;;;;39.00;21.67;;;;;;;;;;6164934;23;20310;-87
2021/01/08 03:16:17;;;;;;;36.92;20.60;;;;;;;;;;6188824;23;20438;-87
2021/01/08 03:18:46;;;;;;;42.63;23.42;;;;;;;;;;6164437;23;20013;-86
2021/01/08 03:21:12;;;;;;;40.97;22.60;;;;;;;;;;6189993;23;20524;-87
2021/01/08 03:23:40;;;;;;;42.65;21.55;;;;;;;;;;6164015;23;20020;-86
2021/01/08 03:26:06;;;;;;;38.67;20.80;;;;;;;;;;6137166;23;20035;-87
2021/01/08 03:28:32;;;;;;;37.30;20.75;;;;;;;;;;6163022;23;20020;-87
2021/01/08 03:30:58;;;;;;;38.78;21.67;;;;;;;;;;6163107;23;20024;-87
2021/01/08 03:33:27;;;;;;;38.10;20.58;;;;;;;;;;6161715;23;20017;-87
2021/01/08 03:35:55;;;;;;;40.28;20.27;;;;;;;;;;6138157;23;20442;-87
2021/01/08 03:38:24;;;;;;;35.30;20.23;;;;;;;;;;6189024;23;20017;-86
2021/01/08 03:40:50;;;;;;;35.25;20.33;;;;;;;;;;6161157;23;20017;-87
2021/01/08 03:43:17;;;;;;;36.05;20.40;;;;;;;;;;6163244;23;20024;-86
2021/01/08 03:45:43;;;;;;;35.70;20.98;;;;;;;;;;6137736;23;20020;-86
2021/01/08 03:48:09;;;;;;;34.60;20.13;;;;;;;;;;6160795;23;20063;-86
2021/01/08 03:50:36;;;;;;;35.72;19.77;;;;;;;;;;6137471;23;20009;-86
2021/01/08 03:53:03;;;;;;;36.72;19.38;;;;;;;;;;6160673;23;20021;-86
2021/01/08 03:55:29;;;;;;;35.78;19.52;;;;;;;;;;6162346;23;20334;-86
2021/01/08 03:57:56;;;;;;;34.72;20.08;;;;;;;;;;6187346;23;20017;-86
2021/01/08 04:00:22;;;;;;;38.75;20.48;;;;;;;;;;6161929;23;20016;-86
2021/01/08 04:02:48;;;;;;;34.90;19.77;;;;;;;;;;6158117;23;20017;-87
2021/01/08 04:05:14;;;;;;;37.13;20.88;;;;;;;;;;6186371;23;20101;-86
2021/01/08 04:07:40;;;;;;;39.97;22.55;;;;;;;;;;6186711;23;20017;-86
2021/01/08 04:10:09;;;;;;;35.85;19.50;;;;;;;;;;6186249;23;20021;-86
2021/01/08 04:12:35;;;;;;;33.30;20.88;;;;;;;;;;6186080;23;20017;-86
2021/01/08 04:15:01;;;;;;;36.42;20.48;;;;;;;;;;6186268;23;20349;-87
2021/01/08 04:17:27;;;;;;;37.78;20.65;;;;;;;;;;6186536;23;20021;-86
2021/01/08 04:19:53;;;;;;;36.90;20.33;;;;;;;;;;6186991;23;20017;-86
2021/01/08 04:22:19;;;;;;;33.97;19.65;;;;;;;;;;6187582;23;20024;-86
2021/01/08 04:24:45;;;;;;;32.83;19.75;;;;;;;;;;6187756;23;20021;-86
2021/01/08 04:27:12;;;;;;;34.97;19.55;;;;;;;;;;6195833;23;20073;-86
2021/01/08 04:29:38;;;;;;;33.53;19.77;;;;;;;;;;6193675;23;20012;-86
2021/01/08 04:32:07;;;;;;;33.53;19.38;;;;;;;;;;6188277;23;20021;-86
2021/01/08 04:34:33;;;;;;;32.28;18.42;;;;;;;;;;6160082;23;20083;-86
2021/01/08 04:36:59;;;;;;;37.08;20.92;;;;;;;;;;6187283;23;20435;-86
2021/01/08 04:39:25;;;;;;;36.17;20.00;;;;;;;;;;6186490;23;20456;-86
2021/01/08 04:41:51;;;;;;;29.35;17.40;;;;;;;;;;6138166;23;20028;-86
2021/01/08 04:44:19;;;;;;;32.90;18.80;;;;;;;;;;6161301;23;20520;-86
2021/01/08 04:46:47;;;;;;;34.42;18.75;;;;;;;;;;6162936;23;20100;-85
2021/01/08 04:49:15;;;;;;;33.00;19.33;;;;;;;;;;6185784;23;20020;-86
2021/01/08 04:51:41;;;;;;;35.90;19.45;;;;;;;;;;6187677;23;20017;-86
2021/01/08 04:54:07;;;;;;;36.15;18.25;;;;;;;;;;6161572;23;20446;-86
2021/01/08 04:56:38;;;;;;;35.15;19.40;;;;;;;;;;6185699;23;20017;-86
2021/01/08 04:59:05;;;;;;;34.22;19.40;;;;;;;;;;6186152;23;20017;-86
2021/01/08 05:01:32;;;;;;;30.90;17.90;;;;;;;;;;6162009;23;20013;-86
2021/01/08 05:03:58;;;;;;;32.92;18.02;;;;;;;;;;6161270;23;20330;-87
2021/01/08 05:06:24;;;;;;;33.85;19.30;;;;;;;;;;6137435;23;20016;-87
2021/01/08 05:08:50;;;;;;;31.45;17.25;;;;;;;;;;6187867;23;20013;-87
2021/01/08 05:11:21;;;;;;;29.70;17.80;;;;;;;;;;6186164;23;20020;-87
2021/01/08 05:13:51;;;;;;;32.65;18.55;;;;;;;;;;6187893;23;20016;-87
2021/01/08 05:16:20;;;;;;;35.25;18.73;;;;;;;;;;6162064;23;20023;-87
2021/01/08 05:18:47;;;;;;;33.78;17.85;;;;;;;;;;6160774;23;20028;-87
2021/01/08 05:21:15;;;;;;;30.85;17.67;;;;;;;;;;6187711;23;20442;-87
2021/01/08 05:23:41;;;;;;;33.50;19.27;;;;;;;;;;6187737;23;20009;-87
2021/01/08 05:26:07;;;;;;;36.72;18.88;;;;;;;;;;6184362;23;20073;-87
2021/01/08 05:28:33;;;;;;;34.13;18.38;;;;;;;;;;6184795;23;20047;-87
2021/01/08 05:31:04;;;;;;;32.55;17.48;;;;;;;;;;6185066;23;20020;-87
2021/01/08 05:33:30;;;;;;;32.00;18.17;;;;;;;;;;6184959;23;20017;-87
2021/01/08 05:35:58;;;;;;;32.03;17.75;;;;;;;;;;6185373;23;20311;-87
2021/01/08 05:38:25;;;;;;;33.05;18.92;;;;;;;;;;6185445;23;20024;-87
2021/01/08 05:40:51;;;;;;;35.33;20.02;;;;;;;;;;6185521;23;20232;-87
2021/01/08 05:43:19;;;;;;;39.28;20.45;;;;;;;;;;6184941;23;20430;-87
2021/01/08 05:45:45;;;;;;;35.28;18.25;;;;;;;;;;6185160;23;20246;-87
2021/01/08 05:48:12;;;;;;;35.10;18.98;;;;;;;;;;6185237;23;20020;-87
2021/01/08 05:50:39;;;;;;;35.33;20.35;;;;;;;;;;6185757;23;20025;-87
2021/01/08 05:53:07;;;;;;;35.22;19.02;;;;;;;;;;6184815;23;20021;-87
2021/01/08 05:55:34;;;;;;;40.50;20.52;;;;;;;;;;6185807;23;20048;-87
2021/01/08 05:58:00;;;;;;;35.40;19.30;;;;;;;;;;6185668;23;20426;-87
2021/01/08 06:00:26;;;;;;;34.50;18.60;;;;;;;;;;6185601;23;20436;-87
2021/01/08 06:02:52;;;;;;;38.30;20.20;;;;;;;;;;6186834;23;20033;-87
2021/01/08 06:05:19;;;;;;;36.05;20.20;;;;;;;;;;6188399;23;20415;-86
2021/01/08 06:07:49;;;;;;;36.45;19.88;;;;;;;;;;6186433;23;20013;-86
2021/01/08 06:10:19;;;;;;;36.00;18.63;;;;;;;;;;6186659;23;20044;-86
2021/01/08 06:12:47;;;;;;;33.08;18.65;;;;;;;;;;6160301;23;20121;-87
2021/01/08 06:15:15;;;;;;;33.92;19.23;;;;;;;;;;6161026;23;20070;-86
2021/01/08 06:17:46;;;;;;;35.97;20.08;;;;;;;;;;6186909;23;20079;-86
2021/01/08 06:20:13;;;;;;;35.38;19.70;;;;;;;;;;6137083;23;20025;-86
2021/01/08 06:22:40;;;;;;;35.05;18.55;;;;;;;;;;6187503;23;20009;-87
2021/01/08 06:25:08;;;;;;;34.72;19.17;;;;;;;;;;6158084;23;20147;-87
2021/01/08 06:27:38;;;;;;;36.97;19.00;;;;;;;;;;6185119;23;20021;-88
2021/01/08 06:30:06;;;;;;;37.40;19.38;;;;;;;;;;6185503;23;20021;-87
2021/01/08 06:32:34;;;;;;;33.65;18.83;;;;;;;;;;6183942;23;20024;-87
2021/01/08 06:35:06;;;;;;;40.70;21.65;;;;;;;;;;6184850;23;20017;-88
2021/01/08 06:37:39;;;;;;;37.20;19.67;;;;;;;;;;6185553;23;20032;-88
2021/01/08 06:40:07;;;;;;;37.38;19.40;;;;;;;;;;6185347;23;20013;-89
2021/01/08 06:42:41;;;;;;;37.28;18.00;;;;;;;;;;6185223;23;20088;-88
2021/01/08 06:45:12;;;;;;;33.17;18.00;;;;;;;;;;6186568;23;20048;-87
2021/01/08 06:47:44;;;;;;;31.73;17.55;;;;;;;;;;6186765;23;20013;-87
2021/01/08 06:50:18;;;;;;;36.58;19.30;;;;;;;;;;6158293;23;20017;-86
2021/01/08 06:52:46;;;;;;;33.60;18.90;;;;;;;;;;6159634;23;20322;-87
2021/01/08 06:55:16;;;;;;;42.00;22.27;;;;;;;;;;6185229;23;20024;-87
2021/01/08 06:58:00;;;;;;;37.85;19.83;;;;;;;;;;6185381;23;20438;-87
2021/01/08 07:00:28;;;;;;;40.00;19.58;;;;;;;;;;6187388;23;20075;-86
2021/01/08 07:02:57;;;;;;;33.83;18.70;;;;;;;;;;6189115;23;20024;-87
2021/01/08 07:05:24;;;;;;;35.20;19.10;;;;;;;;;;6189464;23;20017;-87
2021/01/08 07:07:50;;;;;;;37.78;20.48;;;;;;;;;;6190033;23;20020;-87
2021/01/08 07:10:17;;;;;;;36.03;19.65;;;;;;;;;;6188940;23;20013;-87
2021/01/08 07:12:44;;;;;;;36.25;18.27;;;;;;;;;;6187945;23;20044;-87
2021/01/08 07:15:12;;;;;;;37.00;19.65;;;;;;;;;;6188368;23;20020;-87
2021/01/08 07:17:39;;;;;;;34.60;19.10;;;;;;;;;;6187614;23;20021;-87
2021/01/08 07:20:07;;;;;;;37.97;21.45;;;;;;;;;;6186438;23;20017;-87
2021/01/08 07:22:37;;;;;;;38.13;20.02;;;;;;;;;;6186896;23;20021;-87
2021/01/08 07:25:05;;;;;;;33.10;19.75;;;;;;;;;;6186563;23;20099;-87
2021/01/08 07:27:32;;;;;;;37.30;21.25;;;;;;;;;;6188105;23;20017;-87
2021/01/08 07:30:00;;;;;;;38.95;19.20;;;;;;;;;;6189060;23;20013;-86
2021/01/08 07:32:39;;;;;;;34.95;19.95;;;;;;;;;;6138129;23;20013;-87
2021/01/08 07:35:22;;;;;;;35.78;19.83;;;;;;;;;;6188748;23;20100;-87
2021/01/08 07:37:56;;;;;;;37.38;20.40;;;;;;;;;;6163097;23;20090;-86
2021/01/08 07:40:23;;;;;;;39.42;20.35;;;;;;;;;;6188307;23;20016;-87
2021/01/08 07:42:56;;;;;;;37.63;20.65;;;;;;;;;;6160972;23;20017;-86
2021/01/08 07:45:23;;;;;;;34.95;19.02;;;;;;;;;;6162319;23;20024;-86
2021/01/08 07:47:50;;;;;;;35.47;18.42;;;;;;;;;;6188185;23;20020;-86
2021/01/08 07:50:17;;;;;;;35.97;19.17;;;;;;;;;;6161834;23;20015;-86
2021/01/08 07:52:44;;;;;;;32.85;19.30;;;;;;;;;;6187896;23;20060;-86
2021/01/08 07:55:12;;;;;;;35.08;18.05;;;;;;;;;;6162327;23;20028;-87
2021/01/08 07:58:02;;;;;;;36.70;19.50;;;;;;;;;;6161582;23;20020;-86
2021/01/08 08:00:28;;;;;;;31.63;17.75;;;;;;;;;;6138801;23;20089;-87
2021/01/08 08:02:56;;;;;;;33.70;19.48;;;;;;;;;;6188067;23;20031;-86
2021/01/08 08:05:22;;;;;;;35.90;18.48;;;;;;;;;;6162657;23;20032;-86
2021/01/08 08:07:51;;;;;;;31.90;17.45;;;;;;;;;;6161225;23;20341;-86
2021/01/08 08:10:22;;;;;;;32.15;17.80;;;;;;;;;;6162242;23;20314;-86
2021/01/08 08:12:48;;;;;;;32.78;18.30;;;;;;;;;;6162043;23;20017;-86
2021/01/08 08:15:16;;;;;;;30.70;17.45;;;;;;;;;;6188974;23;20013;-86
2021/01/08 08:17:42;;;;;;;29.63;16.77;;;;;;;;;;6137862;23;20025;-86
2021/01/08 08:20:21;;;;;;;30.73;16.73;;;;;;;;;;6161762;23;20017;-86
2021/01/08 08:22:47;;;;;;;31.35;15.95;;;;;;;;;;6184959;23;20065;-86
2021/01/08 08:25:24;;;;;;;28.95;16.27;;;;;;;;;;6187769;23;20421;-86
2021/01/08 08:27:52;;;;;;;29.75;15.75;;;;;;;;;;6162306;23;20017;-86
2021/01/08 08:30:20;;;;;;;30.98;17.35;;;;;;;;;;6188105;23;20020;-86
2021/01/08 08:32:46;;;;;;;27.85;15.93;;;;;;;;;;6162040;23;20318;-86
2021/01/08 08:35:12;;;;;;;27.63;15.88;;;;;;;;;;6161454;23;20024;-86
2021/01/08 08:37:49;;;;;;;28.13;16.25;;;;;;;;;;6162015;23;20434;-86
2021/01/08 08:40:16;;;;;;;29.40;17.10;;;;;;;;;;6137644;23;20053;-86
2021/01/08 08:42:42;;;;;;;29.33;17.40;;;;;;;;;;6187111;23;20013;-86
2021/01/08 08:45:18;;;;;;;25.95;15.70;;;;;;;;;;6189463;23;20013;-86
2021/01/08 08:47:47;;;;;;;26.92;15.82;;;;;;;;;;6187944;23;20016;-86
2021/01/08 08:50:17;;;;;;;26.70;15.25;;;;;;;;;;6188723;23;20017;-88
2021/01/08 08:52:44;;;;;;;28.67;15.80;;;;;;;;;;6138751;23;20053;-88
2021/01/08 08:55:25;;;;;;;27.88;15.73;;;;;;;;;;6175136;23;20079;-88
2021/01/08 08:57:59;;;;;;;26.15;13.95;;;;;;;;;;6189313;23;20128;-87
2021/01/08 09:00:25;;;;;;;24.23;13.48;;;;;;;;;;6162545;23;20017;-87
2021/01/08 09:02:51;;;;;;;26.42;14.48;;;;;;;;;;6188710;23;20020;-86
2021/01/08 09:05:17;;;;;;;26.52;15.32;;;;;;;;;;6201042;23;20060;-86
2021/01/08 09:07:50;;;;;;;26.70;15.57;;;;;;;;;;6162247;23;20020;-86
2021/01/08 09:10:18;;;;;;;25.08;14.60;;;;;;;;;;6162783;23;20010;-86
2021/01/08 09:12:48;;;;;;;24.58;15.07;;;;;;;;;;6162683;23;20017;-86
2021/01/08 09:15:19;;;;;;;30.13;16.27;;;;;;;;;;6159852;23;20032;-86
2021/01/08 09:17:47;;;;;;;24.33;14.27;;;;;;;;;;6190265;23;20020;-86
2021/01/08 09:20:15;;;;;;;27.80;14.32;;;;;;;;;;6137928;23;20016;-86
2021/01/08 09:22:41;;;;;;;24.83;14.15;;;;;;;;;;6189150;23;20017;-85
2021/01/08 09:25:09;;;;;;;30.23;15.27;;;;;;;;;;6190269;23;20033;-85
2021/01/08 09:27:36;;;;;;;24.50;14.32;;;;;;;;;;6166569;23;20017;-85
2021/01/08 09:30:11;;;;;;;27.10;15.55;;;;;;;;;;6166565;23;20013;-86
2021/01/08 09:32:38;;;;;;;24.05;14.40;;;;;;;;;;6193349;23;20077;-86
2021/01/08 09:35:08;;;;;;;26.67;14.57;;;;;;;;;;6185539;23;20009;-87
2021/01/08 09:37:39;;;;;;;27.13;15.27;;;;;;;;;;6186150;23;20017;-87
2021/01/08 09:40:16;;;;;;;28.38;14.98;;;;;;;;;;6203137;23;20017;-86
2021/01/08 09:42:43;;;;;;;25.50;14.18;;;;;;;;;;6187433;23;20024;-88
2021/01/08 09:45:24;;;;;;;24.58;14.40;;;;;;;;;;6189232;23;20314;-88
2021/01/08 09:47:52;;;;;;;21.48;11.57;;;;;;;;;;6188992;23;20013;-86
2021/01/08 09:50:23;;;;;;;22.80;13.38;;;;;;;;;;6187103;23;20015;-86
2021/01/08 09:52:51;;;;;;;26.52;14.55;;;;;;;;;;6163244;23;20076;-87
2021/01/08 09:55:25;;;;;;;26.30;15.57;;;;;;;;;;6162221;23;20084;-87
2021/01/08 09:57:55;;;;;;;26.80;15.18;;;;;;;;;;6187828;23;20095;-87
2021/01/08 10:00:31;;;;;;;24.02;14.18;;;;;;;;;;6161250;23;20013;-88
2021/01/08 10:03:14;;;;;;;;;;;;;;;;;;6182611;23;20060;-87
2021/01/08 10:05:40;;;;;;;26.73;15.55;;;;;;;;;;6188696;23;20317;-86
2021/01/08 10:08:06;;;;;;;22.38;13.15;;;;;;;;;;6161858;23;20014;-87
2021/01/08 10:10:38;;;;;;;22.73;14.13;;;;;;;;;;6159051;23;20017;-85
2021/01/08 10:13:07;;;;;;;22.88;13.93;;;;;;;;;;6187441;23;20013;-87
2021/01/08 10:15:36;;;;;;;23.67;14.25;;;;;;;;;;6186685;23;20028;-86
2021/01/08 10:18:12;;;;;;;20.77;12.13;;;;;;;;;;6160855;23;20028;-87
2021/01/08 10:20:43;;;;;;;25.38;14.95;;;;;;;;;;6186632;23;20013;-86
2021/01/08 10:23:14;;;;;;;24.33;14.68;;;;;;;;;;6186034;23;20024;-87
2021/01/08 10:25:41;;;;;;;23.77;13.63;;;;;;;;;;6160992;23;20017;-87
2021/01/08 10:28:12;;;;;;;21.38;12.63;;;;;;;;;;6187167;23;20035;-87
2021/01/08 10:30:42;;;;;;;22.35;13.38;;;;;;;;;;6186822;23;20052;-87
2021/01/08 10:33:10;;;;;;;24.08;14.98;;;;;;;;;;6187905;23;20019;-87
2021/01/08 10:35:37;;;;;;;23.75;13.32;;;;;;;;;;6162634;23;20063;-87
2021/01/08 10:38:05;;;;;;;22.75;13.00;;;;;;;;;;6163884;23;20017;-86
2021/01/08 10:40:31;;;;;;;23.52;13.90;;;;;;;;;;6186088;23;20017;-87
2021/01/08 10:42:59;;;;;;;23.58;13.18;;;;;;;;;;6162774;23;20013;-87
2021/01/08 10:45:25;;;;;;;21.48;12.77;;;;;;;;;;6167472;23;20036;-87
2021/01/08 10:47:55;;;;;;;20.27;11.85;;;;;;;;;;6170562;23;20023;-88
2021/01/08 10:50:23;;;;;;;21.98;12.10;;;;;;;;;;6170537;23;20020;-87
2021/01/08 10:52:50;;;;;;;22.08;12.98;;;;;;;;;;6164360;23;20355;-86
2021/01/08 10:55:16;;;;;;;20.25;13.20;;;;;;;;;;6137937;23;20013;-86
2021/01/08 10:57:42;;;;;;;21.63;12.98;;;;;;;;;;6139235;23;20025;-87
2021/01/08 11:00:10;;;;;;;21.70;12.38;;;;;;;;;;6189311;23;20056;-87
2021/01/08 11:02:36;;;;;;;20.00;12.18;;;;;;;;;;6162042;23;20017;-87
2021/01/08 11:05:04;;;;;;;19.08;13.02;;;;;;;;;;6162647;23;20019;-86
2021/01/08 11:07:31;;;;;;;19.20;11.57;;;;;;;;;;6189461;23;20013;-87
2021/01/08 11:09:58;;;;;;;18.70;12.57;;;;;;;;;;6188181;23;20013;-86
2021/01/08 11:12:24;;;;;;;20.42;12.93;;;;;;;;;;6163537;23;20024;-87
2021/01/08 11:14:50;;;;;;;20.23;12.20;;;;;;;;;;6189729;23;20093;-86
2021/01/08 11:17:16;;;;;;;19.20;12.20;;;;;;;;;;6163414;23;20017;-86
2021/01/08 11:19:42;;;;;;;19.15;11.77;;;;;;;;;;6138974;23;20072;-86
2021/01/08 11:22:09;;;;;;;22.38;13.88;;;;;;;;;;6140124;23;20017;-86
2021/01/08 11:24:39;;;;;;;23.17;12.63;;;;;;;;;;6160754;23;20017;-86
2021/01/08 11:27:06;;;;;;;20.33;11.65;;;;;;;;;;6159737;23;20079;-86
2021/01/08 11:29:33;;;;;;;19.25;11.75;;;;;;;;;;6188125;23;20017;-86
2021/01/08 11:31:59;;;;;;;21.63;12.98;;;;;;;;;;6188868;23;20013;-86
2021/01/08 11:34:25;;;;;;;19.27;12.30;;;;;;;;;;6162074;23;20017;-86
2021/01/08 11:36:54;;;;;;;19.60;11.95;;;;;;;;;;6191491;23;20021;-86
2021/01/08 11:39:21;;;;;;;20.25;12.68;;;;;;;;;;6139032;23;20009;-86
2021/01/08 11:41:47;;;;;;;17.42;10.98;;;;;;;;;;6137730;23;20028;-86
2021/01/08 11:44:14;;;;;;;20.83;11.70;;;;;;;;;;6161926;23;20079;-86
2021/01/08 11:46:40;;;;;;;20.88;11.70;;;;;;;;;;6137663;23;20021;-87
2021/01/08 11:49:06;;;;;;;19.85;11.82;;;;;;;;;;6161783;23;20318;-87
2021/01/08 11:51:33;;;;;;;20.17;12.43;;;;;;;;;;6162646;23;20079;-87
2021/01/08 11:53:59;;;;;;;21.67;12.77;;;;;;;;;;6188161;23;20435;-86
2021/01/08 11:56:31;;;;;;;21.27;12.85;;;;;;;;;;6162158;23;20017;-87
2021/01/08 11:58:58;;;;;;;19.40;12.23;;;;;;;;;;6188810;23;20013;-86
2021/01/08 12:01:24;;;;;;;25.83;13.68;;;;;;;;;;6187636;23;20013;-85
2021/01/08 12:03:50;;;;;;;20.23;12.27;;;;;;;;;;6161733;23;20020;-86
2021/01/08 12:06:17;;;;;;;18.88;12.30;;;;;;;;;;6187395;23;20009;-86
2021/01/08 12:08:43;;;;;;;18.00;11.70;;;;;;;;;;6188032;23;20051;-86
2021/01/08 12:11:09;;;;;;;19.83;12.40;;;;;;;;;;6162970;23;20023;-85
2021/01/08 12:13:36;;;;;;;21.40;13.48;;;;;;;;;;6139485;23;20028;-85
2021/01/08 12:16:02;;;;;;;25.38;12.65;;;;;;;;;;6140132;23;20017;-85
2021/01/08 12:18:28;;;;;;;18.08;11.77;;;;;;;;;;6164764;23;20020;-85
2021/01/08 12:20:54;;;;;;;19.95;11.98;;;;;;;;;;6163573;23;20013;-85
2021/01/08 12:23:21;;;;;;;19.55;11.75;;;;;;;;;;6140752;23;20024;-85
2021/01/08 12:25:47;;;;;;;19.38;11.70;;;;;;;;;;6165222;23;20013;-85
2021/01/08 12:28:13;;;;;;;20.33;12.48;;;;;;;;;;6164712;23;20095;-85
2021/01/08 12:30:40;;;;;;;19.58;11.73;;;;;;;;;;6140704;23;20021;-85
2021/01/08 12:33:07;;;;;;;19.40;11.88;;;;;;;;;;6191122;23;20028;-85
2021/01/08 12:35:33;;;;;;;18.88;11.85;;;;;;;;;;6190776;23;20013;-85
2021/01/08 12:37:59;;;;;;;18.55;11.38;;;;;;;;;;6115986;23;20028;-85
2021/01/08 12:40:25;;;;;;;15.43;10.27;;;;;;;;;;6190317;23;20021;-85
2021/01/08 12:42:53;;;;;;;19.15;11.48;;;;;;;;;;6140796;23;20017;-85
2021/01/08 12:45:19;;;;;;;19.63;10.65;;;;;;;;;;6190564;23;20017;-85
2021/01/08 12:47:47;;;;;;;18.75;11.48;;;;;;;;;;6190644;23;20019;-85
2021/01/08 12:50:13;;;;;;;21.45;12.60;;;;;;;;;;6165028;23;20096;-85
2021/01/08 12:52:39;;;;;;;19.92;12.65;;;;;;;;;;6190828;23;20064;-85
2021/01/08 12:55:06;;;;;;;20.88;12.43;;;;;;;;;;6164514;23;20021;-85
2021/01/08 12:57:32;;;;;;;16.80;10.85;;;;;;;;;;6163175;23;20028;-85
2021/01/08 12:59:59;;;;;;;19.40;11.95;;;;;;;;;;6190932;23;20021;-85
2021/01/08 13:02:24;;;;;;;18.80;10.85;;;;;;;;;;6163795;23;20017;-85
2021/01/08 13:04:51;;;;;;;18.50;11.05;;;;;;;;;;6190314;23;20037;-85
2021/01/08 13:07:18;;;;;;;16.52;10.73;;;;;;;;;;6115096;23;20020;-86
2021/01/08 13:09:43;;;;;;;15.32;8.85;;;;;;;;;;6186430;23;20013;-84
2021/01/08 13:12:10;;;;;;;16.88;10.43;;;;;;;;;;6189398;23;20092;-85
2021/01/08 13:14:36;;;;;;;16.48;9.52;;;;;;;;;;6188878;23;20016;-84
2021/01/08 13:17:02;;;;;;;18.05;10.30;;;;;;;;;;6175599;23;20041;-85
2021/01/08 13:19:28;;;;;;;17.40;11.15;;;;;;;;;;6191990;23;20063;-85
2021/01/08 13:21:56;;;;;;;17.40;9.65;;;;;;;;;;6174953;23;20017;-86
2021/01/08 13:24:22;;;;;;;16.23;9.27;;;;;;;;;;6142967;23;20013;-85
2021/01/08 13:26:48;;;;;;;13.20;8.70;;;;;;;;;;6167575;23;20017;-85
2021/01/08 13:29:14;;;;;;;15.82;8.73;;;;;;;;;;6193557;23;20020;-85
2021/01/08 13:31:43;;;;;;;14.95;8.50;;;;;;;;;;6118775;23;20072;-85
2021/01/08 13:34:09;;;;;;;19.02;10.20;;;;;;;;;;6166141;23;20017;-85
2021/01/08 13:36:36;;;;;;;14.52;9.23;;;;;;;;;;6165359;23;20071;-85
2021/01/08 13:39:04;;;;;;;16.15;9.13;;;;;;;;;;6192817;23;20357;-85
2021/01/08 13:41:31;;;;;;;14.60;8.35;;;;;;;;;;6163451;23;20034;-85
2021/01/08 13:43:57;;;;;;;15.70;9.27;;;;;;;;;;6139108;23;20028;-85
2021/01/08 13:46:23;;;;;;;13.05;8.13;;;;;;;;;;6188569;23;20024;-86
2021/01/08 13:48:49;;;;;;;13.05;8.25;;;;;;;;;;6163769;23;20056;-86
2021/01/08 13:51:19;;;;;;;11.80;7.32;;;;;;;;;;6164587;23;20021;-86
2021/01/08 13:53:46;;;;;;;12.65;7.35;;;;;;;;;;6163376;23;20013;-86
2021/01/08 13:56:17;;;;;;;11.23;6.95;;;;;;;;;;6161755;23;20021;-86
2021/01/08 13:58:43;;;;;;;11.50;7.25;;;;;;;;;;6189241;23;20327;-86
2021/01/08 14:01:13;;;;;;;13.45;7.47;;;;;;;;;;6188404;23;20010;-87
2021/01/08 14:03:39;;;;;;;11.35;7.72;;;;;;;;;;6160743;23;20013;-87
2021/01/08 14:06:05;;;;;;;13.63;7.03;;;;;;;;;;6184309;23;20013;-88
2021/01/08 14:08:31;;;;;;;13.57;8.27;;;;;;;;;;6187793;23;20434;-86
2021/01/08 14:10:57;;;;;;;14.50;8.77;;;;;;;;;;6191228;23;20024;-85
2021/01/08 14:13:24;;;;;;;15.25;8.00;;;;;;;;;;6190151;23;20013;-86
2021/01/08 14:15:54;;;;;;;12.20;8.40;;;;;;;;;;6138758;23;20021;-86
2021/01/08 14:18:23;;;;;;;13.77;8.63;;;;;;;;;;6163835;23;20477;-88
2021/01/08 14:20:51;;;;;;;13.60;8.52;;;;;;;;;;6188988;23;20067;-87